Time;durP1;ratioP1;P1;durP2;ratioP2;P2;SDS_P1;SDS_P2;PMS_P1;PMS_P2;Temp;Humidity;BMP_temperature;BMP_pressure;BME280_temperature;BME280_humidity;BME280_pressure;Samples;Min_cycle;Max_cycle;Signal;HPM_P1;HPM_P2
2023/03/04 00:00:46;;;;;;;4.33;1.67;;;24.60;99.90;;;;;;5073450;28;20186;-75
2023/03/04 00:03:17;;;;;;;5.23;1.60;;;24.80;99.90;;;;;;5073345;28;20681;-72
2023/03/04 00:05:46;;;;;;;3.20;1.30;;;25.00;99.90;;;;;;5073398;28;20541;-72
2023/03/04 00:08:13;;;;;;;11.23;1.53;;;25.40;99.90;;;;;;5073292;28;20172;-73
2023/03/04 00:10:41;;;;;;;3.00;1.13;;;25.70;99.90;;;;;;5073029;28;20182;-72
2023/03/04 00:13:09;;;;;;;5.13;1.30;;;25.70;99.90;;;;;;5073124;28;20201;-76
2023/03/04 00:15:37;;;;;;;4.97;1.10;;;26.00;99.90;;;;;;5073274;28;20207;-74
2023/03/04 00:18:05;;;;;;;1.83;1.10;;;26.20;99.90;;;;;;5072881;28;20633;-73
2023/03/04 00:20:32;;;;;;;6.17;1.40;;;26.80;99.90;;;;;;5073297;28;20187;-73
2023/03/04 00:23:00;;;;;;;5.37;1.53;;;27.40;99.90;;;;;;5072941;28;20325;-72
2023/03/04 00:25:28;;;;;;;5.60;1.40;;;28.10;99.90;;;;;;5073085;28;20548;-72
2023/03/04 00:27:57;;;;;;;3.07;1.23;;;28.40;99.90;;;;;;5071674;28;20535;-74
2023/03/04 00:30:25;;;;;;;2.30;1.23;;;28.70;99.90;;;;;;5072857;28;20209;-73
2023/03/04 00:32:53;;;;;;;5.10;1.43;;;29.10;99.90;;;;;;5073088;28;20205;-73
2023/03/04 00:35:20;;;;;;;4.50;1.27;;;28.90;99.90;;;;;;5072986;28;20172;-76
2023/03/04 00:37:48;;;;;;;6.70;1.70;;;28.80;99.90;;;;;;5072421;28;20222;-73
2023/03/04 00:40:16;;;;;;;3.53;1.30;;;28.80;99.90;;;;;;5072911;28;20180;-73
2023/03/04 00:42:44;;;;;;;6.17;1.47;;;28.60;99.90;;;;;;5072835;28;20259;-72
2023/03/04 00:45:11;;;;;;;3.33;1.43;;;28.70;99.90;;;;;;5072995;28;20172;-73
2023/03/04 00:47:39;;;;;;;3.90;1.10;;;29.30;99.90;;;;;;5073011;28;20224;-74
2023/03/04 00:50:08;;;;;;;5.60;1.20;;;29.70;99.90;;;;;;5072912;28;20214;-73
2023/03/04 00:52:35;;;;;;;6.53;1.20;;;29.80;99.90;;;;;;5072728;28;20176;-74
2023/03/04 00:55:04;;;;;;;5.45;1.30;;;29.80;99.90;;;;;;5075196;28;20201;-75
2023/03/04 00:57:31;;;;;;;2.40;1.10;;;30.20;99.90;;;;;;5075592;28;20180;-74
2023/03/04 00:59:59;;;;;;;5.28;1.02;;;31.20;99.90;;;;;;5076936;28;20544;-73
2023/03/04 01:02:27;;;;;;;2.10;1.00;;;31.20;99.90;;;;;;5076844;28;20212;-73
2023/03/04 01:04:55;;;;;;;6.23;1.50;;;30.70;99.90;;;;;;5076614;28;20528;-72
2023/03/04 01:07:23;;;;;;;5.15;1.15;;;29.90;99.90;;;;;;5076749;28;20233;-73
2023/03/04 01:09:50;;;;;;;7.80;1.27;;;29.20;99.90;;;;;;5076653;28;20172;-76
2023/03/04 01:12:18;;;;;;;5.13;1.23;;;28.60;99.90;;;;;;5076600;28;20364;-72
2023/03/04 01:14:46;;;;;;;3.60;1.00;;;28.00;99.90;;;;;;5077795;28;20176;-75
2023/03/04 01:17:14;;;;;;;2.67;1.23;;;27.70;99.90;;;;;;5076872;28;20291;-74
2023/03/04 01:19:42;;;;;;;3.73;1.23;;;27.50;99.90;;;;;;5076994;28;20229;-73
2023/03/04 01:22:11;;;;;;;4.77;1.20;;;27.60;99.90;;;;;;5076730;28;20204;-73
2023/03/04 01:24:38;;;;;;;5.60;1.00;;;27.90;99.90;;;;;;5076402;28;20234;-75
2023/03/04 01:27:06;;;;;;;3.43;0.90;;;28.10;99.90;;;;;;5076622;28;20172;-72
2023/03/04 01:29:34;;;;;;;6.70;1.20;;;28.40;99.90;;;;;;5076444;28;20180;-73
2023/03/04 01:32:02;;;;;;;4.37;1.23;;;28.50;99.90;;;;;;5076363;28;20690;-72
2023/03/04 01:34:30;;;;;;;6.03;1.10;;;28.10;99.90;;;;;;5076751;28;20172;-77
2023/03/04 01:36:57;;;;;;;9.63;2.30;;;27.90;99.90;;;;;;5076379;28;20176;-74
2023/03/04 01:39:25;;;;;;;7.77;1.13;;;27.70;99.90;;;;;;5076348;28;20188;-76
2023/03/04 01:41:53;;;;;;;5.63;1.07;;;27.50;99.90;;;;;;5076233;28;20545;-75
2023/03/04 01:44:21;;;;;;;3.03;0.93;;;27.20;99.90;;;;;;5076168;28;20180;-75
2023/03/04 01:46:52;;;;;;;5.13;1.23;;;27.00;99.90;;;;;;5076001;28;20176;-75
2023/03/04 01:49:23;;;;;;;3.80;0.80;;;26.80;99.90;;;;;;5075943;28;20275;-72
2023/03/04 01:51:53;;;;;;;4.30;0.90;;;26.70;99.90;;;;;;5076085;28;20176;-74
2023/03/04 01:54:23;;;;;;;6.90;1.00;;;26.70;99.90;;;;;;5076269;28;20176;-72
2023/03/04 01:56:54;;;;;;;3.43;1.10;;;26.70;99.90;;;;;;5076078;28;20180;-71
2023/03/04 01:59:29;;;;;;;6.97;1.30;;;26.60;99.90;;;;;;5075748;28;20664;-72
2023/03/04 02:01:59;;;;;;;5.13;1.10;;;26.40;99.90;;;;;;5076133;28;20164;-72
2023/03/04 02:04:30;;;;;;;3.33;1.00;;;26.50;99.90;;;;;;5075887;28;20172;-73
2023/03/04 02:06:59;;;;;;;2.90;1.00;;;26.50;99.90;;;;;;5075889;28;20222;-72
2023/03/04 02:09:28;;;;;;;3.13;0.87;;;26.50;99.90;;;;;;5074189;28;20630;-72
2023/03/04 02:11:56;;;;;;;4.17;1.03;;;26.40;99.90;;;;;;5075512;28;20279;-72
2023/03/04 02:14:25;;;;;;;2.30;0.97;;;26.40;99.90;;;;;;5075678;28;20164;-76
2023/03/04 02:16:54;;;;;;;4.30;1.10;;;26.20;99.90;;;;;;5075460;28;20172;-75
2023/03/04 02:19:49;;;;;;;6.67;1.50;;;26.20;99.90;;;;;;5075574;28;20681;-72
2023/03/04 02:22:17;;;;;;;3.80;1.27;;;26.10;99.90;;;;;;5075544;28;20257;-73
2023/03/04 02:24:59;;;;;;;8.77;1.37;;;26.10;99.90;;;;;;5075338;28;20298;-72
2023/03/04 02:27:26;;;;;;;8.07;1.60;;;26.10;99.90;;;;;;5075435;28;20183;-72
2023/03/04 02:29:54;;;;;;;6.90;1.20;;;26.10;99.90;;;;;;5075372;28;20218;-72
2023/03/04 02:32:22;;;;;;;3.87;1.03;;;26.20;99.90;;;;;;5075088;28;20176;-72
2023/03/04 02:34:51;;;;;;;4.80;1.20;;;26.20;99.90;;;;;;5075239;28;20172;-73
2023/03/04 02:37:20;;;;;;;4.40;0.90;;;26.30;99.90;;;;;;5075184;28;20168;-72
2023/03/04 02:39:49;;;;;;;6.77;1.07;;;26.30;99.90;;;;;;5073680;28;20184;-72
2023/03/04 02:42:17;;;;;;;5.23;1.03;;;26.20;99.90;;;;;;5075174;28;20253;-73
2023/03/04 02:44:48;;;;;;;4.03;1.00;;;26.10;99.90;;;;;;5074893;28;20184;-72
2023/03/04 02:47:17;;;;;;;3.30;1.00;;;26.10;99.90;;;;;;5075006;28;20179;-71
2023/03/04 02:49:45;;;;;;;5.03;1.10;;;26.00;99.90;;;;;;5075121;28;20218;-72
2023/03/04 02:52:18;;;;;;;3.20;1.10;;;26.00;99.90;;;;;;5074652;28;20175;-72
2023/03/04 02:54:46;;;;;;;6.00;0.90;;;26.10;99.90;;;;;;5074719;28;20172;-73
2023/03/04 02:57:15;;;;;;;4.80;1.47;;;26.10;99.90;;;;;;5074829;28;20176;-72
2023/03/04 02:59:43;;;;;;;2.03;0.93;;;26.00;99.90;;;;;;5074715;28;20172;-75
2023/03/04 03:02:11;;;;;;;3.23;1.30;;;26.20;99.90;;;;;;5074469;28;20192;-72
2023/03/04 03:04:39;;;;;;;3.67;1.20;;;26.30;99.90;;;;;;5074613;28;20224;-75
2023/03/04 03:07:08;;;;;;;4.60;1.07;;;26.40;99.90;;;;;;5074641;28;20540;-72
2023/03/04 03:09:35;;;;;;;8.60;1.10;;;26.70;99.90;;;;;;5074529;28;20183;-75
2023/03/04 03:12:03;;;;;;;6.40;1.30;;;26.90;99.90;;;;;;5074777;28;20177;-72
2023/03/04 03:14:31;;;;;;;6.63;1.00;;;27.10;99.90;;;;;;5074536;28;20649;-71
2023/03/04 03:16:59;;;;;;;2.03;0.80;;;27.50;99.90;;;;;;5073464;28;20169;-72
2023/03/04 03:19:28;;;;;;;3.00;0.80;;;27.70;99.90;;;;;;5074196;28;20190;-73
2023/03/04 03:21:55;;;;;;;4.60;0.90;;;27.70;99.90;;;;;;5074214;28;20195;-74
2023/03/04 03:24:23;;;;;;;7.63;1.13;;;27.80;99.90;;;;;;5074252;28;20176;-76
2023/03/04 03:26:51;;;;;;;2.87;0.90;;;27.80;99.90;;;;;;5073991;28;20638;-72
2023/03/04 03:29:19;;;;;;;5.30;0.80;;;27.70;99.90;;;;;;5074035;28;20172;-73
2023/03/04 03:31:46;;;;;;;5.47;1.33;;;27.50;99.90;;;;;;5073961;28;20168;-73
2023/03/04 03:34:14;;;;;;;3.47;0.97;;;27.40;99.90;;;;;;5074108;28;20574;-77
2023/03/04 03:36:42;;;;;;;6.70;0.87;;;27.30;99.90;;;;;;5073756;28;20204;-75
2023/03/04 03:39:10;;;;;;;7.40;1.23;;;27.40;99.90;;;;;;5073687;28;20180;-73
2023/03/04 03:41:37;;;;;;;4.97;1.03;;;27.30;99.90;;;;;;5073826;28;20233;-74
2023/03/04 03:44:05;;;;;;;4.63;1.20;;;27.30;99.90;;;;;;5073687;28;20218;-73
2023/03/04 03:46:34;;;;;;;3.97;0.83;;;27.40;99.90;;;;;;5073726;28;20259;-76
2023/03/04 03:49:02;;;;;;;4.10;0.90;;;27.60;99.90;;;;;;5073607;28;20183;-76
2023/03/04 03:51:29;;;;;;;3.03;1.03;;;27.60;99.90;;;;;;5073520;28;20274;-75
2023/03/04 03:53:57;;;;;;;3.57;0.90;;;27.70;99.90;;;;;;5073362;28;20172;-75
2023/03/04 03:56:25;;;;;;;3.70;0.83;;;27.70;99.90;;;;;;5073473;28;20282;-75
2023/03/04 03:58:53;;;;;;;3.93;0.70;;;27.70;99.90;;;;;;5073336;28;20255;-76
2023/03/04 04:01:20;;;;;;;3.97;1.20;;;27.70;99.90;;;;;;5074500;28;20175;-73
2023/03/04 04:03:48;;;;;;;2.13;0.97;;;27.70;99.90;;;;;;5076175;28;20216;-74
2023/03/04 04:06:16;;;;;;;1.93;0.93;;;28.00;99.90;;;;;;5074825;28;20622;-74
2023/03/04 04:08:44;;;;;;;6.60;1.10;;;28.20;99.90;;;;;;5074586;28;20180;-76
2023/03/04 04:11:13;;;;;;;3.93;1.20;;;28.50;99.90;;;;;;5073249;28;20282;-76
2023/03/04 04:13:40;;;;;;;4.00;0.90;;;28.60;99.90;;;;;;5073267;28;20179;-73
2023/03/04 04:16:09;;;;;;;4.00;1.10;;;28.50;99.90;;;;;;5073510;28;20501;-76
2023/03/04 04:18:37;;;;;;;6.57;0.90;;;28.40;99.90;;;;;;5071638;28;20235;-77
2023/03/04 04:21:06;;;;;;;2.73;0.70;;;28.40;99.90;;;;;;5073240;28;20184;-76
2023/03/04 04:23:37;;;;;;;7.83;1.77;;;28.30;99.90;;;;;;5073063;28;20219;-76
2023/03/04 04:26:05;;;;;;;4.23;0.93;;;28.20;99.90;;;;;;5071955;28;20187;-73
2023/03/04 04:28:33;;;;;;;2.70;1.23;;;28.30;99.90;;;;;;5072226;28;20176;-75
2023/03/04 04:31:01;;;;;;;3.53;0.70;;;28.90;99.90;;;;;;5072917;28;20172;-76
2023/03/04 04:33:29;;;;;;;2.20;1.10;;;29.10;99.90;;;;;;5073019;28;20258;-73
2023/03/04 04:35:57;;;;;;;2.73;0.97;;;28.70;99.90;;;;;;5073009;28;20168;-73
2023/03/04 04:38:24;;;;;;;1.87;0.60;;;28.50;99.90;;;;;;5073001;28;20294;-74
2023/03/04 04:40:52;;;;;;;3.87;0.80;;;28.20;99.90;;;;;;5073145;28;20187;-76
2023/03/04 04:43:20;;;;;;;5.13;0.83;;;28.10;99.90;;;;;;5071788;28;20215;-75
2023/03/04 04:45:48;;;;;;;4.50;0.83;;;28.30;99.90;;;;;;5072980;28;20637;-75
2023/03/04 04:48:16;;;;;;;5.10;0.97;;;28.60;99.90;;;;;;5071533;28;20191;-76
2023/03/04 04:50:43;;;;;;;4.37;0.93;;;28.90;99.90;;;;;;5072779;28;20179;-77
2023/03/04 04:53:13;;;;;;;2.87;0.90;;;28.90;99.90;;;;;;5072841;28;20199;-72
2023/03/04 04:55:41;;;;;;;3.13;1.00;;;29.40;99.90;;;;;;5072804;28;20172;-76
2023/03/04 04:58:08;;;;;;;2.60;1.00;;;29.80;99.90;;;;;;5072557;28;20175;-74
2023/03/04 05:00:36;;;;;;;3.97;1.20;;;30.10;99.90;;;;;;5073155;28;20195;-75
2023/03/04 05:03:04;;;;;;;5.67;1.53;;;30.10;99.90;;;;;;5072750;28;20607;-73
2023/03/04 05:05:31;;;;;;;3.57;0.77;;;29.70;99.90;;;;;;5072648;28;20656;-74
2023/03/04 05:07:59;;;;;;;3.37;1.10;;;29.10;99.90;;;;;;5072564;28;20206;-73
2023/03/04 05:10:27;;;;;;;4.60;0.90;;;28.60;99.90;;;;;;5072530;28;20172;-76
2023/03/04 05:12:55;;;;;;;5.90;1.10;;;28.50;99.90;;;;;;5072509;28;20595;-73
2023/03/04 05:15:23;;;;;;;2.90;1.13;;;28.40;99.90;;;;;;5072689;28;20222;-76
2023/03/04 05:17:50;;;;;;;4.27;0.93;;;28.30;99.90;;;;;;5072309;28;20266;-76
2023/03/04 05:20:18;;;;;;;2.80;1.00;;;28.20;99.90;;;;;;5072766;28;20173;-73
2023/03/04 05:22:46;;;;;;;3.93;1.40;;;28.10;99.90;;;;;;5072664;28;20235;-73
2023/03/04 05:25:13;;;;;;;6.00;0.83;;;28.10;99.90;;;;;;5072429;28;20645;-73
2023/03/04 05:27:41;;;;;;;2.70;0.87;;;28.20;99.90;;;;;;5072517;28;20172;-73
2023/03/04 05:30:10;;;;;;;4.37;1.20;;;28.20;99.90;;;;;;5072393;28;20179;-73
2023/03/04 05:32:38;;;;;;;3.47;0.97;;;28.30;99.90;;;;;;5072471;28;20208;-76
2023/03/04 05:35:06;;;;;;;5.43;0.90;;;28.50;99.90;;;;;;5072823;28;20200;-74
2023/03/04 05:37:34;;;;;;;2.97;0.87;;;28.40;99.90;;;;;;5072701;28;20192;-76
2023/03/04 05:40:02;;;;;;;5.43;0.83;;;28.60;99.90;;;;;;5073225;28;20267;-76
2023/03/04 05:42:31;;;;;;;3.30;0.87;;;28.80;99.90;;;;;;5076243;28;20215;-77
2023/03/04 05:44:59;;;;;;;5.67;0.97;;;28.60;99.90;;;;;;5076330;28;20206;-74
2023/03/04 05:47:26;;;;;;;5.00;1.00;;;28.50;99.90;;;;;;5076121;28;20176;-72
2023/03/04 05:49:54;;;;;;;2.50;0.93;;;28.40;99.90;;;;;;5076235;28;20245;-75
2023/03/04 05:52:22;;;;;;;5.53;1.23;;;28.40;99.90;;;;;;5076152;28;20172;-77
2023/03/04 05:54:49;;;;;;;4.30;0.80;;;28.50;99.90;;;;;;5076043;28;20639;-74
2023/03/04 05:57:17;;;;;;;3.10;0.90;;;28.80;99.90;;;;;;5076059;28;20172;-75
2023/03/04 05:59:45;;;;;;;3.57;1.20;;;28.60;99.90;;;;;;5075986;28;20191;-73
2023/03/04 06:02:13;;;;;;;2.53;0.53;;;28.40;99.90;;;;;;5076093;28;20175;-73
2023/03/04 06:04:40;;;;;;;5.30;0.93;;;28.10;99.90;;;;;;5076072;28;20176;-75
2023/03/04 06:07:08;;;;;;;3.43;1.40;;;27.70;99.90;;;;;;5075722;28;20186;-75
2023/03/04 06:09:36;;;;;;;3.80;0.97;;;27.70;99.90;;;;;;5075834;28;20176;-73
2023/03/04 06:12:04;;;;;;;5.37;1.20;;;27.80;99.90;;;;;;5075766;28;20648;-72
2023/03/04 06:14:32;;;;;;;5.33;0.90;;;27.80;99.90;;;;;;5075780;28;20225;-73
2023/03/04 06:16:59;;;;;;;6.63;1.00;;;27.90;99.90;;;;;;5075330;28;20176;-75
2023/03/04 06:19:27;;;;;;;5.63;1.00;;;27.70;99.90;;;;;;5075629;28;20539;-73
2023/03/04 06:21:55;;;;;;;1.33;0.50;;;27.90;99.90;;;;;;5075409;28;20274;-74
2023/03/04 06:24:23;;;;;;;2.13;0.60;;;28.10;99.90;;;;;;5075627;28;20192;-73
2023/03/04 06:26:50;;;;;;;4.43;0.90;;;28.00;99.90;;;;;;5075418;28;20180;-73
2023/03/04 06:29:18;;;;;;;4.43;1.10;;;27.80;99.90;;;;;;5075334;28;20257;-73
2023/03/04 06:31:46;;;;;;;6.33;1.00;;;27.80;99.90;;;;;;5075451;28;20278;-73
2023/03/04 06:34:14;;;;;;;3.83;0.83;;;27.70;99.90;;;;;;5075671;28;20180;-73
2023/03/04 06:36:41;;;;;;;5.00;0.90;;;27.60;99.90;;;;;;5076050;28;20622;-73
2023/03/04 06:39:09;;;;;;;6.60;0.90;;;27.40;99.90;;;;;;5076770;28;20317;-73
2023/03/04 06:41:37;;;;;;;1.87;0.80;;;27.10;99.90;;;;;;5076841;28;20175;-72
2023/03/04 06:44:06;;;;;;;4.33;1.47;;;26.80;99.90;;;;;;5061148;28;20560;-73
2023/03/04 06:46:35;;;;;;;8.00;1.33;;;26.60;99.90;;;;;;5048372;28;20583;-72
2023/03/04 06:49:02;;;;;;;2.70;0.73;;;26.40;99.90;;;;;;5050860;28;20214;-73
2023/03/04 06:51:30;;;;;;;8.40;1.17;;;26.40;99.90;;;;;;5052219;28;20593;-73
2023/03/04 06:53:58;;;;;;;4.87;1.03;;;26.30;99.90;;;;;;5048963;28;20181;-72
2023/03/04 06:56:26;;;;;;;3.87;0.90;;;26.20;99.90;;;;;;5051924;28;20188;-72
2023/03/04 06:58:56;;;;;;;4.53;1.00;;;26.20;99.90;;;;;;5052602;28;20650;-73
2023/03/04 07:01:27;;;;;;;3.43;0.80;;;26.20;99.90;;;;;;5053109;28;20183;-73
2023/03/04 07:03:55;;;;;;;3.90;1.20;;;26.30;99.90;;;;;;5052610;28;20311;-72
2023/03/04 07:06:26;;;;;;;6.23;1.17;;;26.50;99.90;;;;;;5052174;28;20187;-73
2023/03/04 07:08:54;;;;;;;3.83;1.23;;;26.60;99.90;;;;;;5040701;28;20247;-73
2023/03/04 07:11:22;;;;;;;3.30;0.80;;;26.60;99.90;;;;;;5033145;28;20216;-73
2023/03/04 07:14:00;;;;;;;2.77;0.90;;;26.50;99.90;;;;;;5033024;28;20265;-72
2023/03/04 07:16:28;;;;;;;5.80;1.10;;;26.40;99.90;;;;;;5032685;28;20203;-73
2023/03/04 07:18:56;;;;;;;6.47;1.00;;;26.20;99.90;;;;;;5032745;28;20607;-72
2023/03/04 07:21:24;;;;;;;1.53;0.60;;;26.00;99.90;;;;;;5033104;28;20181;-73
2023/03/04 07:23:52;;;;;;;7.10;1.40;;;25.90;99.90;;;;;;5039293;28;20212;-73
2023/03/04 07:26:20;;;;;;;4.97;1.10;;;25.80;99.90;;;;;;5051876;28;20195;-73
2023/03/04 07:28:48;;;;;;;2.60;0.80;;;25.70;99.90;;;;;;5052759;28;20578;-72
2023/03/04 07:31:23;;;;;;;4.30;0.90;;;25.60;99.90;;;;;;5052630;28;20176;-73
2023/03/04 07:33:51;;;;;;;5.13;1.20;;;25.50;99.90;;;;;;5052433;28;20184;-72
2023/03/04 07:36:19;;;;;;;3.40;1.00;;;25.50;99.90;;;;;;5065544;28;20176;-72
2023/03/04 07:38:49;;;;;;;4.10;0.90;;;25.50;99.90;;;;;;5032524;28;20243;-73
2023/03/04 07:41:18;;;;;;;12.90;1.40;;;25.30;99.90;;;;;;5032285;28;20170;-73
2023/03/04 07:43:45;;;;;;;4.83;1.20;;;25.20;99.90;;;;;;5032471;28;20215;-73
2023/03/04 07:46:19;;;;;;;5.03;1.00;;;25.20;99.90;;;;;;5032240;28;20173;-73
2023/03/04 07:48:47;;;;;;;2.70;0.80;;;25.20;99.90;;;;;;5052356;28;20187;-72
2023/03/04 07:51:20;;;;;;;3.33;0.87;;;25.20;99.90;;;;;;5051150;28;20184;-73
2023/03/04 07:53:51;;;;;;;7.50;1.27;;;25.20;99.90;;;;;;5032322;28;20177;-73
2023/03/04 07:56:22;;;;;;;3.43;1.00;;;25.20;99.90;;;;;;5049310;28;20200;-73
2023/03/04 07:58:52;;;;;;;5.27;1.10;;;25.10;99.90;;;;;;5052233;28;20227;-74
2023/03/04 08:01:27;;;;;;;4.43;1.13;;;25.00;99.90;;;;;;5050480;28;20183;-72
2023/03/04 08:03:55;;;;;;;6.30;1.23;;;25.00;99.90;;;;;;5031884;28;20211;-73
2023/03/04 08:06:24;;;;;;;5.87;1.30;;;24.80;99.90;;;;;;5032194;28;20184;-72
2023/03/04 08:08:57;;;;;;;6.57;1.13;;;24.70;99.90;;;;;;5031803;28;20256;-73
2023/03/04 08:11:25;;;;;;;3.13;1.13;;;24.60;99.90;;;;;;5033142;28;20181;-72
2023/03/04 08:13:53;;;;;;;7.50;1.30;;;24.60;99.90;;;;;;5036952;28;20554;-73
2023/03/04 08:16:22;;;;;;;3.07;1.13;;;24.60;99.90;;;;;;5031927;28;20658;-72
2023/03/04 08:18:53;;;;;;;10.37;1.53;;;24.60;99.90;;;;;;5032762;28;20306;-72
2023/03/04 08:21:24;;;;;;;5.23;1.03;;;24.50;99.90;;;;;;5051057;28;20181;-71
2023/03/04 08:23:52;;;;;;;6.93;1.27;;;24.40;99.90;;;;;;5051565;28;20223;-72
2023/03/04 08:26:23;;;;;;;6.50;1.37;;;24.30;99.90;;;;;;5050329;28;20188;-72
2023/03/04 08:28:52;;;;;;;5.30;1.23;;;24.20;99.90;;;;;;5049855;28;20183;-73
2023/03/04 08:31:20;;;;;;;6.53;1.43;;;24.10;99.90;;;;;;5051469;28;20188;-72
2023/03/04 08:33:48;;;;;;;7.03;1.70;;;24.10;99.90;;;;;;5039024;28;20510;-72
2023/03/04 08:36:16;;;;;;;8.97;1.20;;;24.00;99.90;;;;;;5050802;28;20214;-72
2023/03/04 08:38:44;;;;;;;4.50;1.73;;;23.90;99.90;;;;;;5047996;28;20585;-72
2023/03/04 08:41:12;;;;;;;8.07;1.97;;;23.80;99.90;;;;;;5051348;28;20181;-72
2023/03/04 08:43:50;;;;;;;5.40;1.40;;;23.80;99.90;;;;;;5051137;28;20230;-73
2023/03/04 08:46:18;;;;;;;6.53;1.97;;;23.70;99.90;;;;;;5050546;28;20517;-72
2023/03/04 08:48:45;;;;;;;7.37;1.23;;;23.60;99.90;;;;;;5050160;28;20196;-72
2023/03/04 08:51:15;;;;;;;6.97;1.53;;;23.60;99.90;;;;;;5051356;28;20203;-72
2023/03/04 08:53:44;;;;;;;6.90;1.60;;;23.60;99.90;;;;;;5051197;28;20633;-73
2023/03/04 08:56:13;;;;;;;5.77;1.50;;;23.50;99.90;;;;;;5048880;28;20180;-72
2023/03/04 08:58:41;;;;;;;5.23;1.63;;;23.40;99.90;;;;;;5049932;28;20188;-73
2023/03/04 09:01:11;;;;;;;6.63;1.43;;;23.30;99.90;;;;;;5051680;28;20266;-72
2023/03/04 09:03:40;;;;;;;14.37;2.03;;;23.40;99.90;;;;;;5051138;28;20303;-73
2023/03/04 09:06:09;;;;;;;5.87;1.20;;;23.30;99.90;;;;;;5050704;28;20213;-73
2023/03/04 09:08:37;;;;;;;6.40;1.10;;;23.30;99.90;;;;;;5051236;28;20215;-73
2023/03/04 09:11:05;;;;;;;4.97;1.77;;;23.20;99.90;;;;;;5051162;28;20181;-73
2023/03/04 09:13:33;;;;;;;4.73;1.67;;;23.20;99.90;;;;;;5050784;28;20223;-72
2023/03/04 09:16:01;;;;;;;3.93;1.33;;;23.20;99.90;;;;;;5052837;28;20184;-73
2023/03/04 09:18:29;;;;;;;8.33;1.80;;;23.20;99.90;;;;;;5054836;28;20237;-73
2023/03/04 09:20:57;;;;;;;4.73;1.37;;;23.10;99.90;;;;;;5054871;28;20234;-73
2023/03/04 09:23:25;;;;;;;8.57;1.80;;;23.10;99.90;;;;;;5053636;28;20216;-73
2023/03/04 09:25:56;;;;;;;7.73;1.80;;;23.10;99.90;;;;;;5034485;28;20209;-73
2023/03/04 09:28:24;;;;;;;5.03;1.57;;;23.20;99.90;;;;;;5035145;28;20174;-73
2023/03/04 09:31:01;;;;;;;4.53;1.57;;;23.20;99.90;;;;;;5035167;28;20230;-73
2023/03/04 09:33:28;;;;;;;7.80;1.67;;;23.20;99.90;;;;;;5054463;28;20187;-72
2023/03/04 09:35:57;;;;;;;6.00;1.70;;;23.20;99.90;;;;;;5054223;28;20672;-72
2023/03/04 09:38:26;;;;;;;4.87;1.90;;;23.10;99.90;;;;;;5054724;28;20199;-72
2023/03/04 09:40:54;;;;;;;5.83;1.63;;;23.10;99.90;;;;;;5054955;28;20200;-73
2023/03/04 09:43:28;;;;;;;8.60;1.87;;;23.00;99.90;;;;;;5054837;28;20733;-73
2023/03/04 09:46:09;;;;;;;6.23;1.40;;;22.90;99.90;;;;;;5054160;28;20185;-74
2023/03/04 09:48:46;;;;;;;9.80;1.47;;;22.90;99.90;;;;;;5046147;28;20180;-72
2023/03/04 09:51:38;;;;;;;3.53;1.30;;;22.90;99.90;;;;;;5036616;28;20637;-73
2023/03/04 09:54:33;;;;;;;3.87;1.40;;;22.90;99.90;;;;;;5036171;28;20172;-72
2023/03/04 09:57:17;;;;;;;8.17;1.70;;;23.00;99.90;;;;;;5052487;28;20183;-73
2023/03/04 10:00:06;;;;;;;4.87;1.40;;;23.10;99.90;;;;;;5055255;28;20180;-73
2023/03/04 10:02:45;;;;;;;6.30;1.60;;;23.10;99.90;;;;;;5053984;28;20218;-72
2023/03/04 10:05:20;;;;;;;9.53;1.53;;;23.10;99.90;;;;;;5055482;28;20259;-73
2023/03/04 10:08:06;;;;;;;7.23;1.63;;;23.00;99.90;;;;;;5055372;28;20195;-72
2023/03/04 10:10:41;;;;;;;10.10;1.73;;;22.90;99.90;;;;;;5055257;28;20212;-73
2023/03/04 10:13:18;;;;;;;7.73;1.70;;;22.80;99.90;;;;;;5053701;28;20179;-72
2023/03/04 10:15:53;;;;;;;5.80;1.80;;;22.70;99.90;;;;;;5055110;28;20183;-73
2023/03/04 10:18:27;;;;;;;2.87;1.67;;;22.60;99.90;;;;;;5053725;28;20220;-73
2023/03/04 10:21:23;;;;;;;7.87;1.90;;;22.50;99.90;;;;;;5055334;28;20176;-73
2023/03/04 10:23:53;;;;;;;5.70;1.53;;;22.40;99.90;;;;;;5054784;28;20300;-73
2023/03/04 10:26:22;;;;;;;5.93;1.80;;;22.30;99.90;;;;;;5052966;28;20199;-73
2023/03/04 10:28:50;;;;;;;7.30;1.67;;;22.20;99.90;;;;;;5054630;28;20275;-72
2023/03/04 10:31:40;;;;;;;9.60;2.00;;;22.10;99.90;;;;;;5054769;28;20175;-72
2023/03/04 10:34:12;;;;;;;8.30;1.33;;;22.00;99.90;;;;;;5054620;28;20204;-72
2023/03/04 10:37:00;;;;;;;4.00;1.60;;;21.80;99.90;;;;;;5054927;28;20172;-73
2023/03/04 10:39:39;;;;;;;7.80;1.80;;;21.70;99.90;;;;;;5054577;28;20518;-72
2023/03/04 10:42:28;;;;;;;9.67;2.17;;;21.70;99.90;;;;;;5054465;28;20171;-73
2023/03/04 10:45:00;;;;;;;4.40;1.80;;;21.60;99.90;;;;;;5053600;28;20283;-72
2023/03/04 10:47:34;;;;;;;5.17;2.03;;;21.60;99.90;;;;;;5054717;28;20608;-72
2023/03/04 10:50:04;;;;;;;5.90;1.97;;;21.50;99.90;;;;;;5054670;28;20211;-72
2023/03/04 10:52:51;;;;;;;5.83;1.93;;;21.40;99.90;;;;;;5054295;28;20236;-72
2023/03/04 10:55:43;;;;;;;8.77;2.43;;;21.40;99.90;;;;;;5054440;28;20219;-73
2023/03/04 10:58:18;;;;;;;11.97;2.93;;;21.30;99.90;;;;;;5054514;28;20197;-72
2023/03/04 11:01:05;;;;;;;5.63;2.30;;;21.20;99.90;;;;;;5054513;28;20184;-73
2023/03/04 11:03:37;;;;;;;9.77;2.43;;;21.20;99.90;;;;;;5054367;28;20251;-73
2023/03/04 11:06:12;;;;;;;3.33;1.80;;;21.00;99.90;;;;;;5054359;28;20178;-73
2023/03/04 11:08:41;;;;;;;4.60;1.90;;;21.00;99.90;;;;;;5054435;28;20244;-73
2023/03/04 11:11:33;;;;;;;5.10;1.63;;;20.90;99.90;;;;;;5052846;28;20182;-73
2023/03/04 11:14:29;;;;;;;4.17;1.87;;;20.90;99.90;;;;;;5054266;28;20607;-73
2023/03/04 11:17:03;;;;;;;8.50;2.13;;;20.90;99.90;;;;;;5051031;28;20188;-73
2023/03/04 11:19:41;;;;;;;10.47;2.30;;;20.80;99.90;;;;;;5054175;28;20180;-73
2023/03/04 11:22:13;;;;;;;7.57;2.33;;;20.70;99.90;;;;;;5053671;28;20280;-73
2023/03/04 11:24:42;;;;;;;5.63;2.20;;;20.70;99.90;;;;;;5054192;28;20179;-73
2023/03/04 11:27:23;;;;;;;5.93;2.17;;;20.70;99.90;;;;;;5053969;28;20176;-73
2023/03/04 11:30:16;;;;;;;6.43;2.47;;;20.60;99.90;;;;;;5053677;28;20197;-73
2023/03/04 11:32:49;;;;;;;4.53;2.10;;;20.50;99.90;;;;;;5042498;28;20196;-73
2023/03/04 11:35:26;;;;;;;10.63;2.37;;;20.50;99.90;;;;;;5053558;28;20251;-73
2023/03/04 11:38:21;;;;;;;4.13;1.73;;;20.50;99.90;;;;;;5053343;28;20175;-73
2023/03/04 11:40:58;;;;;;;9.40;2.07;;;20.50;99.90;;;;;;5053462;28;20244;-73
2023/03/04 11:43:38;;;;;;;5.23;2.00;;;20.50;99.90;;;;;;5045746;28;20710;-73
2023/03/04 11:46:36;;;;;;;4.80;1.73;;;20.50;99.90;;;;;;5048739;28;20188;-73
2023/03/04 11:49:28;;;;;;;8.83;2.40;;;20.50;99.90;;;;;;5046033;28;20184;-73
2023/03/04 11:52:27;;;;;;;4.27;1.87;;;20.50;99.90;;;;;;5052594;28;20279;-74
2023/03/04 11:55:22;;;;;;;6.47;1.90;;;20.50;99.90;;;;;;5049583;28;20199;-73
2023/03/04 11:58:26;;;;;;;6.43;2.13;;;20.40;99.90;;;;;;5050428;28;20188;-73
2023/03/04 12:01:10;;;;;;;9.23;2.20;;;20.40;99.90;;;;;;5051122;28;20186;-73
2023/03/04 12:03:59;;;;;;;6.20;2.03;;;20.40;99.90;;;;;;5034063;28;20216;-73
2023/03/04 12:07:01;;;;;;;8.47;1.90;;;20.30;99.90;;;;;;5052879;28;20227;-72
2023/03/04 12:10:21;;;;;;;4.40;1.83;;;20.20;99.90;;;;;;5048779;28;20186;-73
2023/03/04 12:13:36;;;;;;;8.63;1.90;;;20.20;99.90;;;;;;5009906;28;20179;-73
2023/03/04 12:16:43;;;;;;;5.33;2.00;;;20.10;99.90;;;;;;4971145;28;20339;-73
2023/03/04 12:19:36;;;;;;;8.63;2.20;;;20.10;99.90;;;;;;5027152;28;20231;-73
2023/03/04 12:22:29;;;;;;;4.30;2.00;;;20.00;99.90;;;;;;5050323;28;20686;-73
2023/03/04 12:25:32;;;;;;;4.40;1.80;;;20.00;99.90;;;;;;5053032;28;20711;-73
2023/03/04 12:28:12;;;;;;;5.57;1.73;;;19.90;99.90;;;;;;5051450;28;20559;-73
2023/03/04 12:31:11;;;;;;;5.13;2.20;;;19.90;99.90;;;;;;5050460;28;20191;-73
2023/03/04 12:34:09;;;;;;;8.03;2.57;;;20.00;99.90;;;;;;5050152;28;20642;-73
2023/03/04 12:36:54;;;;;;;8.43;2.43;;;20.00;99.90;;;;;;5051260;28;20192;-73
2023/03/04 12:39:50;;;;;;;5.93;2.50;;;20.10;99.90;;;;;;5051669;28;20176;-73
2023/03/04 12:42:44;;;;;;;4.23;1.90;;;20.20;99.90;;;;;;5052812;28;20179;-73
2023/03/04 12:45:32;;;;;;;5.93;2.07;;;20.20;99.90;;;;;;5052092;28;20199;-73
2023/03/04 12:48:36;;;;;;;8.50;3.30;;;20.20;99.90;;;;;;5052882;28;20639;-73
2023/03/04 12:51:32;;;;;;;6.80;2.60;;;20.30;99.90;;;;;;5046368;28;20187;-73
2023/03/04 12:54:06;;;;;;;5.13;3.70;;;20.30;99.90;;;;;;5032066;28;20208;-73
2023/03/04 12:57:05;;;;;;;10.47;4.23;;;20.40;99.90;;;;;;5052354;28;20182;-73
2023/03/04 12:59:39;;;;;;;12.07;5.37;;;20.50;99.90;;;;;;5050446;28;20592;-73
2023/03/04 13:02:57;;;;;;;11.30;5.20;;;20.50;99.90;;;;;;5048926;28;20181;-73
2023/03/04 13:05:44;;;;;;;13.00;4.87;;;20.60;99.90;;;;;;5019936;28;20208;-73
2023/03/04 13:08:28;;;;;;;7.97;4.70;;;20.50;99.90;;;;;;5051232;28;20516;-73
2023/03/04 13:11:21;;;;;;;9.57;4.40;;;20.40;99.90;;;;;;5050331;28;20200;-73
2023/03/04 13:14:01;;;;;;;11.27;3.63;;;20.40;99.90;;;;;;5039022;28;20192;-73